sensor_id;sensor_type;location;lat;lon;timestamp;P1;durP1;ratioP1;P2;durP2;ratioP2
49440;SDS011;35317;51.978;6.296;2022-11-21T00:02:22;153.32;;;44.08;;
49440;SDS011;35317;51.978;6.296;2022-11-21T00:07:23;160.93;;;44.53;;
49440;SDS011;35317;51.978;6.296;2022-11-21T00:12:23;212.90;;;48.38;;
49440;SDS011;35317;51.978;6.296;2022-11-21T00:17:24;160.88;;;46.38;;
49440;SDS011;35317;51.978;6.296;2022-11-21T00:22:25;185.00;;;46.83;;
49440;SDS011;35317;51.978;6.296;2022-11-21T00:27:26;156.27;;;43.08;;
49440;SDS011;35317;51.978;6.296;2022-11-21T00:32:27;129.90;;;41.92;;
49440;SDS011;35317;51.978;6.296;2022-11-21T00:37:28;150.68;;;43.92;;
49440;SDS011;35317;51.978;6.296;2022-11-21T00:42:28;151.50;;;43.75;;
49440;SDS011;35317;51.978;6.296;2022-11-21T00:47:29;149.90;;;44.33;;
49440;SDS011;35317;51.978;6.296;2022-11-21T00:52:30;159.05;;;43.65;;
49440;SDS011;35317;51.978;6.296;2022-11-21T00:57:30;129.95;;;40.40;;
49440;SDS011;35317;51.978;6.296;2022-11-21T01:02:32;162.23;;;44.45;;
49440;SDS011;35317;51.978;6.296;2022-11-21T01:07:33;186.77;;;47.05;;
49440;SDS011;35317;51.978;6.296;2022-11-21T01:12:34;170.68;;;45.60;;
49440;SDS011;35317;51.978;6.296;2022-11-21T01:17:35;143.43;;;42.65;;
49440;SDS011;35317;51.978;6.296;2022-11-21T01:22:35;141.50;;;41.55;;
49440;SDS011;35317;51.978;6.296;2022-11-21T01:27:36;133.77;;;42.25;;
49440;SDS011;35317;51.978;6.296;2022-11-21T01:32:37;191.57;;;45.72;;
49440;SDS011;35317;51.978;6.296;2022-11-21T01:37:37;168.20;;;44.10;;
49440;SDS011;35317;51.978;6.296;2022-11-21T01:48:02;157.93;;;44.10;;
49440;SDS011;35317;51.978;6.296;2022-11-21T01:53:02;153.73;;;45.10;;
49440;SDS011;35317;51.978;6.296;2022-11-21T01:58:03;150.63;;;43.03;;
49440;SDS011;35317;51.978;6.296;2022-11-21T02:03:06;194.65;;;44.30;;
49440;SDS011;35317;51.978;6.296;2022-11-21T02:08:20;163.07;;;42.53;;
49440;SDS011;35317;51.978;6.296;2022-11-21T02:13:25;244.23;;;47.83;;
49440;SDS011;35317;51.978;6.296;2022-11-21T02:18:26;270.30;;;50.85;;
49440;SDS011;35317;51.978;6.296;2022-11-21T02:23:36;222.77;;;48.20;;
49440;SDS011;35317;51.978;6.296;2022-11-21T02:29:05;160.27;;;43.65;;
49440;SDS011;35317;51.978;6.296;2022-11-21T02:34:06;214.90;;;46.80;;
49440;SDS011;35317;51.978;6.296;2022-11-21T02:39:08;153.43;;;42.97;;
49440;SDS011;35317;51.978;6.296;2022-11-21T02:44:17;165.45;;;43.90;;
49440;SDS011;35317;51.978;6.296;2022-11-21T02:55:06;151.80;;;42.38;;
49440;SDS011;35317;51.978;6.296;2022-11-21T03:00:08;179.48;;;45.20;;
49440;SDS011;35317;51.978;6.296;2022-11-21T03:05:11;169.40;;;44.22;;
49440;SDS011;35317;51.978;6.296;2022-11-21T03:10:16;168.45;;;43.80;;
49440;SDS011;35317;51.978;6.296;2022-11-21T03:15:17;254.18;;;49.88;;
49440;SDS011;35317;51.978;6.296;2022-11-21T03:20:18;178.63;;;46.58;;
49440;SDS011;35317;51.978;6.296;2022-11-21T03:25:18;189.57;;;45.88;;
49440;SDS011;35317;51.978;6.296;2022-11-21T03:30:20;183.25;;;45.97;;
49440;SDS011;35317;51.978;6.296;2022-11-21T03:35:23;210.80;;;46.47;;
49440;SDS011;35317;51.978;6.296;2022-11-21T03:40:24;183.88;;;44.40;;
49440;SDS011;35317;51.978;6.296;2022-11-21T03:45:25;299.27;;;51.90;;
49440;SDS011;35317;51.978;6.296;2022-11-21T03:50:26;154.32;;;44.63;;
49440;SDS011;35317;51.978;6.296;2022-11-21T03:55:26;200.65;;;46.63;;
49440;SDS011;35317;51.978;6.296;2022-11-21T04:00:27;234.75;;;47.75;;
49440;SDS011;35317;51.978;6.296;2022-11-21T04:05:28;290.40;;;52.70;;
49440;SDS011;35317;51.978;6.296;2022-11-21T04:10:28;396.45;;;56.72;;
49440;SDS011;35317;51.978;6.296;2022-11-21T04:15:29;317.65;;;53.38;;
49440;SDS011;35317;51.978;6.296;2022-11-21T04:20:30;258.00;;;49.08;;
49440;SDS011;35317;51.978;6.296;2022-11-21T04:25:31;290.75;;;52.35;;
49440;SDS011;35317;51.978;6.296;2022-11-21T04:30:32;267.52;;;52.97;;
49440;SDS011;35317;51.978;6.296;2022-11-21T04:35:33;277.15;;;52.05;;
49440;SDS011;35317;51.978;6.296;2022-11-21T04:40:34;293.83;;;54.05;;
49440;SDS011;35317;51.978;6.296;2022-11-21T04:45:35;270.38;;;52.53;;
49440;SDS011;35317;51.978;6.296;2022-11-21T04:50:36;325.73;;;58.45;;
49440;SDS011;35317;51.978;6.296;2022-11-21T04:55:37;245.85;;;52.08;;
49440;SDS011;35317;51.978;6.296;2022-11-21T05:00:37;309.83;;;53.63;;
49440;SDS011;35317;51.978;6.296;2022-11-21T05:05:38;389.80;;;60.10;;
49440;SDS011;35317;51.978;6.296;2022-11-21T05:10:39;421.83;;;61.95;;
49440;SDS011;35317;51.978;6.296;2022-11-21T05:15:58;393.85;;;59.00;;
49440;SDS011;35317;51.978;6.296;2022-11-21T05:20:59;475.83;;;62.95;;
49440;SDS011;35317;51.978;6.296;2022-11-21T05:26:01;400.08;;;59.30;;
49440;SDS011;35317;51.978;6.296;2022-11-21T05:31:02;396.17;;;61.13;;
49440;SDS011;35317;51.978;6.296;2022-11-21T05:36:03;483.98;;;65.45;;
49440;SDS011;35317;51.978;6.296;2022-11-21T05:41:04;450.50;;;62.67;;
49440;SDS011;35317;51.978;6.296;2022-11-21T05:46:04;482.15;;;64.28;;
49440;SDS011;35317;51.978;6.296;2022-11-21T05:51:05;377.48;;;60.42;;
49440;SDS011;35317;51.978;6.296;2022-11-21T05:56:09;407.38;;;62.10;;
49440;SDS011;35317;51.978;6.296;2022-11-21T06:01:15;485.33;;;65.88;;
49440;SDS011;35317;51.978;6.296;2022-11-21T06:06:57;451.70;;;65.15;;
49440;SDS011;35317;51.978;6.296;2022-11-21T06:11:58;472.80;;;65.93;;
49440;SDS011;35317;51.978;6.296;2022-11-21T06:16:59;574.22;;;71.30;;
49440;SDS011;35317;51.978;6.296;2022-11-21T06:22:00;566.25;;;69.53;;
49440;SDS011;35317;51.978;6.296;2022-11-21T06:27:01;610.72;;;69.45;;
49440;SDS011;35317;51.978;6.296;2022-11-21T06:32:01;756.97;;;78.57;;
49440;SDS011;35317;51.978;6.296;2022-11-21T06:37:02;663.25;;;65.47;;
49440;SDS011;35317;51.978;6.296;2022-11-21T06:42:03;542.75;;;59.60;;
49440;SDS011;35317;51.978;6.296;2022-11-21T06:47:04;630.60;;;64.90;;
49440;SDS011;35317;51.978;6.296;2022-11-21T06:52:04;495.95;;;58.97;;
49440;SDS011;35317;51.978;6.296;2022-11-21T06:57:05;501.73;;;61.28;;
49440;SDS011;35317;51.978;6.296;2022-11-21T07:02:09;521.55;;;62.63;;
49440;SDS011;35317;51.978;6.296;2022-11-21T07:07:13;519.22;;;64.38;;
49440;SDS011;35317;51.978;6.296;2022-11-21T07:12:14;509.13;;;62.95;;
49440;SDS011;35317;51.978;6.296;2022-11-21T07:17:33;485.67;;;61.10;;
49440;SDS011;35317;51.978;6.296;2022-11-21T07:22:34;501.23;;;62.83;;
49440;SDS011;35317;51.978;6.296;2022-11-21T07:27:34;437.83;;;59.50;;
49440;SDS011;35317;51.978;6.296;2022-11-21T07:32:35;437.92;;;61.15;;
49440;SDS011;35317;51.978;6.296;2022-11-21T07:37:37;479.75;;;63.67;;
49440;SDS011;35317;51.978;6.296;2022-11-21T07:42:38;517.00;;;63.08;;
49440;SDS011;35317;51.978;6.296;2022-11-21T07:47:39;443.40;;;61.17;;
49440;SDS011;35317;51.978;6.296;2022-11-21T07:52:41;375.30;;;60.00;;
49440;SDS011;35317;51.978;6.296;2022-11-21T07:57:41;482.48;;;61.60;;
49440;SDS011;35317;51.978;6.296;2022-11-21T08:02:42;407.85;;;59.42;;
49440;SDS011;35317;51.978;6.296;2022-11-21T08:07:43;468.85;;;63.35;;
49440;SDS011;35317;51.978;6.296;2022-11-21T08:12:44;351.48;;;57.65;;
49440;SDS011;35317;51.978;6.296;2022-11-21T08:17:47;587.70;;;71.78;;
49440;SDS011;35317;51.978;6.296;2022-11-21T08:22:48;468.35;;;66.07;;
49440;SDS011;35317;51.978;6.296;2022-11-21T08:27:49;300.83;;;52.45;;
49440;SDS011;35317;51.978;6.296;2022-11-21T08:32:50;337.85;;;54.13;;
49440;SDS011;35317;51.978;6.296;2022-11-21T08:37:57;318.95;;;52.17;;
49440;SDS011;35317;51.978;6.296;2022-11-21T08:43:06;383.10;;;54.58;;
49440;SDS011;35317;51.978;6.296;2022-11-21T08:48:09;313.45;;;52.53;;
49440;SDS011;35317;51.978;6.296;2022-11-21T08:53:10;425.60;;;55.15;;
49440;SDS011;35317;51.978;6.296;2022-11-21T08:58:11;364.38;;;49.85;;
49440;SDS011;35317;51.978;6.296;2022-11-21T09:03:12;292.13;;;46.65;;
49440;SDS011;35317;51.978;6.296;2022-11-21T09:08:12;306.02;;;49.65;;
49440;SDS011;35317;51.978;6.296;2022-11-21T09:13:13;331.27;;;48.05;;
49440;SDS011;35317;51.978;6.296;2022-11-21T09:18:14;449.00;;;53.17;;
49440;SDS011;35317;51.978;6.296;2022-11-21T09:23:15;358.02;;;48.45;;
49440;SDS011;35317;51.978;6.296;2022-11-21T09:28:16;311.55;;;46.78;;
49440;SDS011;35317;51.978;6.296;2022-11-21T09:33:17;371.88;;;50.55;;
49440;SDS011;35317;51.978;6.296;2022-11-21T09:38:18;322.60;;;45.78;;
49440;SDS011;35317;51.978;6.296;2022-11-21T09:48:47;326.88;;;45.50;;
49440;SDS011;35317;51.978;6.296;2022-11-21T09:53:58;367.13;;;46.17;;
49440;SDS011;35317;51.978;6.296;2022-11-21T10:04:20;363.75;;;46.58;;
49440;SDS011;35317;51.978;6.296;2022-11-21T10:09:33;425.83;;;49.78;;
49440;SDS011;35317;51.978;6.296;2022-11-21T10:15:13;528.83;;;57.38;;
49440;SDS011;35317;51.978;6.296;2022-11-21T10:26:39;641.28;;;62.47;;
49440;SDS011;35317;51.978;6.296;2022-11-21T10:32:12;593.83;;;62.13;;
49440;SDS011;35317;51.978;6.296;2022-11-21T10:37:39;543.83;;;57.45;;
49440;SDS011;35317;51.978;6.296;2022-11-21T10:42:52;496.73;;;55.92;;
49440;SDS011;35317;51.978;6.296;2022-11-21T10:48:01;381.42;;;51.97;;
49440;SDS011;35317;51.978;6.296;2022-11-21T10:53:04;508.23;;;57.30;;
49440;SDS011;35317;51.978;6.296;2022-11-21T10:58:47;656.72;;;133.88;;
49440;SDS011;35317;51.978;6.296;2022-11-21T11:09:20;446.15;;;55.78;;
49440;SDS011;35317;51.978;6.296;2022-11-21T11:14:32;471.30;;;60.30;;
49440;SDS011;35317;51.978;6.296;2022-11-21T11:19:33;460.90;;;57.35;;
49440;SDS011;35317;51.978;6.296;2022-11-21T11:24:34;464.25;;;57.55;;
49440;SDS011;35317;51.978;6.296;2022-11-21T11:29:40;424.95;;;55.35;;
49440;SDS011;35317;51.978;6.296;2022-11-21T11:35:00;413.73;;;54.47;;
49440;SDS011;35317;51.978;6.296;2022-11-21T11:40:24;495.10;;;58.00;;
49440;SDS011;35317;51.978;6.296;2022-11-21T11:51:59;406.20;;;56.15;;
49440;SDS011;35317;51.978;6.296;2022-11-21T11:56:43;369.15;;;53.15;;
49440;SDS011;35317;51.978;6.296;2022-11-21T12:01:57;421.55;;;58.53;;
49440;SDS011;35317;51.978;6.296;2022-11-21T12:07:11;485.83;;;103.88;;
49440;SDS011;35317;51.978;6.296;2022-11-21T12:12:35;355.00;;;59.00;;
49440;SDS011;35317;51.978;6.296;2022-11-21T12:17:41;289.77;;;54.60;;
49440;SDS011;35317;51.978;6.296;2022-11-21T12:23:05;269.77;;;57.05;;
49440;SDS011;35317;51.978;6.296;2022-11-21T12:28:13;317.90;;;55.53;;
49440;SDS011;35317;51.978;6.296;2022-11-21T12:33:32;230.00;;;49.67;;
49440;SDS011;35317;51.978;6.296;2022-11-21T12:44:01;189.18;;;47.15;;
49440;SDS011;35317;51.978;6.296;2022-11-21T12:50:06;204.68;;;49.05;;
49440;SDS011;35317;51.978;6.296;2022-11-21T12:55:32;226.27;;;48.60;;
49440;SDS011;35317;51.978;6.296;2022-11-21T13:00:52;192.77;;;45.13;;
49440;SDS011;35317;51.978;6.296;2022-11-21T13:06:17;224.05;;;49.08;;
49440;SDS011;35317;51.978;6.296;2022-11-21T13:11:40;198.77;;;47.17;;
49440;SDS011;35317;51.978;6.296;2022-11-21T13:27:38;145.73;;;38.15;;
49440;SDS011;35317;51.978;6.296;2022-11-21T13:32:41;197.65;;;44.45;;
49440;SDS011;35317;51.978;6.296;2022-11-21T13:38:05;170.55;;;43.20;;
49440;SDS011;35317;51.978;6.296;2022-11-21T13:43:13;143.90;;;41.35;;
49440;SDS011;35317;51.978;6.296;2022-11-21T14:21:25;133.00;;;37.00;;
49440;SDS011;35317;51.978;6.296;2022-11-21T14:26:30;135.93;;;34.97;;
49440;SDS011;35317;51.978;6.296;2022-11-21T14:31:45;153.07;;;39.70;;
49440;SDS011;35317;51.978;6.296;2022-11-21T14:36:47;124.45;;;35.45;;
49440;SDS011;35317;51.978;6.296;2022-11-21T14:41:51;139.82;;;38.47;;
49440;SDS011;35317;51.978;6.296;2022-11-21T14:47:12;126.22;;;36.53;;
49440;SDS011;35317;51.978;6.296;2022-11-21T14:52:26;116.72;;;35.42;;
49440;SDS011;35317;51.978;6.296;2022-11-21T14:57:31;122.73;;;34.77;;
49440;SDS011;35317;51.978;6.296;2022-11-21T15:02:37;131.05;;;35.83;;
49440;SDS011;35317;51.978;6.296;2022-11-21T15:07:43;156.90;;;38.08;;
49440;SDS011;35317;51.978;6.296;2022-11-21T15:17:48;174.85;;;44.08;;
49440;SDS011;35317;51.978;6.296;2022-11-21T15:22:57;228.80;;;48.30;;
49440;SDS011;35317;51.978;6.296;2022-11-21T15:38:30;189.55;;;49.65;;
49440;SDS011;35317;51.978;6.296;2022-11-21T15:48:50;188.00;;;48.28;;
49440;SDS011;35317;51.978;6.296;2022-11-21T15:53:55;188.63;;;48.70;;
49440;SDS011;35317;51.978;6.296;2022-11-21T15:58:55;171.90;;;45.92;;
49440;SDS011;35317;51.978;6.296;2022-11-21T16:03:57;174.90;;;45.28;;
49440;SDS011;35317;51.978;6.296;2022-11-21T16:09:00;176.10;;;46.30;;
49440;SDS011;35317;51.978;6.296;2022-11-21T16:14:03;221.50;;;47.00;;
49440;SDS011;35317;51.978;6.296;2022-11-21T16:19:06;178.35;;;45.03;;
49440;SDS011;35317;51.978;6.296;2022-11-21T16:24:06;183.48;;;45.90;;
49440;SDS011;35317;51.978;6.296;2022-11-21T16:29:08;164.02;;;43.90;;
49440;SDS011;35317;51.978;6.296;2022-11-21T16:34:10;171.55;;;45.65;;
49440;SDS011;35317;51.978;6.296;2022-11-21T16:39:10;177.40;;;46.00;;
49440;SDS011;35317;51.978;6.296;2022-11-21T16:44:12;139.60;;;41.42;;
49440;SDS011;35317;51.978;6.296;2022-11-21T16:49:16;180.52;;;45.85;;
49440;SDS011;35317;51.978;6.296;2022-11-21T16:54:17;144.80;;;41.08;;
49440;SDS011;35317;51.978;6.296;2022-11-21T16:59:18;149.93;;;41.75;;
49440;SDS011;35317;51.978;6.296;2022-11-21T17:04:19;135.70;;;39.97;;
49440;SDS011;35317;51.978;6.296;2022-11-21T17:09:19;122.18;;;41.05;;
49440;SDS011;35317;51.978;6.296;2022-11-21T17:14:20;170.50;;;44.17;;
49440;SDS011;35317;51.978;6.296;2022-11-21T17:19:21;177.00;;;43.45;;
49440;SDS011;35317;51.978;6.296;2022-11-21T17:24:22;119.32;;;38.97;;
49440;SDS011;35317;51.978;6.296;2022-11-21T17:29:22;128.35;;;39.65;;
49440;SDS011;35317;51.978;6.296;2022-11-21T17:34:23;119.25;;;38.42;;
49440;SDS011;35317;51.978;6.296;2022-11-21T17:39:24;116.10;;;35.17;;
49440;SDS011;35317;51.978;6.296;2022-11-21T17:44:26;114.30;;;37.42;;
49440;SDS011;35317;51.978;6.296;2022-11-21T17:49:28;119.63;;;39.00;;
49440;SDS011;35317;51.978;6.296;2022-11-21T17:54:35;100.20;;;35.95;;
49440;SDS011;35317;51.978;6.296;2022-11-21T17:59:36;105.03;;;35.55;;
49440;SDS011;35317;51.978;6.296;2022-11-21T18:04:38;111.70;;;36.45;;
49440;SDS011;35317;51.978;6.296;2022-11-21T18:09:40;87.82;;;33.83;;
49440;SDS011;35317;51.978;6.296;2022-11-21T18:14:41;92.53;;;33.60;;
49440;SDS011;35317;51.978;6.296;2022-11-21T18:19:41;83.25;;;33.65;;
49440;SDS011;35317;51.978;6.296;2022-11-21T18:24:42;79.40;;;30.50;;
49440;SDS011;35317;51.978;6.296;2022-11-21T18:29:43;67.28;;;28.02;;
49440;SDS011;35317;51.978;6.296;2022-11-21T18:34:43;79.50;;;31.23;;
49440;SDS011;35317;51.978;6.296;2022-11-21T18:39:44;76.80;;;30.55;;
49440;SDS011;35317;51.978;6.296;2022-11-21T18:44:45;71.60;;;28.88;;
49440;SDS011;35317;51.978;6.296;2022-11-21T18:49:46;70.03;;;27.73;;
49440;SDS011;35317;51.978;6.296;2022-11-21T18:54:46;66.85;;;27.55;;
49440;SDS011;35317;51.978;6.296;2022-11-21T18:59:47;67.00;;;26.88;;
49440;SDS011;35317;51.978;6.296;2022-11-21T19:04:48;55.72;;;24.52;;
49440;SDS011;35317;51.978;6.296;2022-11-21T19:09:48;50.42;;;22.95;;
49440;SDS011;35317;51.978;6.296;2022-11-21T19:14:49;49.88;;;22.77;;
49440;SDS011;35317;51.978;6.296;2022-11-21T19:19:51;53.33;;;23.40;;
49440;SDS011;35317;51.978;6.296;2022-11-21T19:24:51;53.90;;;22.88;;
49440;SDS011;35317;51.978;6.296;2022-11-21T19:29:52;51.50;;;25.58;;
49440;SDS011;35317;51.978;6.296;2022-11-21T19:34:54;50.35;;;21.85;;
49440;SDS011;35317;51.978;6.296;2022-11-21T19:39:54;46.58;;;21.55;;
49440;SDS011;35317;51.978;6.296;2022-11-21T19:44:55;43.20;;;20.73;;
49440;SDS011;35317;51.978;6.296;2022-11-21T19:49:57;37.85;;;20.38;;
49440;SDS011;35317;51.978;6.296;2022-11-21T19:54:58;41.88;;;19.30;;
49440;SDS011;35317;51.978;6.296;2022-11-21T19:59:58;39.90;;;17.50;;
49440;SDS011;35317;51.978;6.296;2022-11-21T20:04:59;38.30;;;18.02;;
49440;SDS011;35317;51.978;6.296;2022-11-21T20:10:00;35.28;;;16.10;;
49440;SDS011;35317;51.978;6.296;2022-11-21T20:15:00;36.63;;;16.83;;
49440;SDS011;35317;51.978;6.296;2022-11-21T20:20:01;30.95;;;14.95;;
49440;SDS011;35317;51.978;6.296;2022-11-21T20:25:02;25.88;;;13.73;;
49440;SDS011;35317;51.978;6.296;2022-11-21T20:30:04;26.10;;;12.13;;
49440;SDS011;35317;51.978;6.296;2022-11-21T20:35:05;25.73;;;12.48;;
49440;SDS011;35317;51.978;6.296;2022-11-21T20:40:11;26.73;;;12.88;;
49440;SDS011;35317;51.978;6.296;2022-11-21T20:45:12;24.88;;;13.13;;
49440;SDS011;35317;51.978;6.296;2022-11-21T20:50:14;31.52;;;12.85;;
49440;SDS011;35317;51.978;6.296;2022-11-21T20:55:15;24.23;;;11.75;;
49440;SDS011;35317;51.978;6.296;2022-11-21T21:00:16;24.70;;;12.07;;
49440;SDS011;35317;51.978;6.296;2022-11-21T21:05:17;22.98;;;11.50;;
49440;SDS011;35317;51.978;6.296;2022-11-21T21:10:18;29.92;;;13.23;;
49440;SDS011;35317;51.978;6.296;2022-11-21T21:15:22;23.48;;;11.73;;
49440;SDS011;35317;51.978;6.296;2022-11-21T21:20:23;28.90;;;13.00;;
49440;SDS011;35317;51.978;6.296;2022-11-21T21:25:23;31.35;;;13.73;;
49440;SDS011;35317;51.978;6.296;2022-11-21T21:30:24;28.33;;;15.18;;
49440;SDS011;35317;51.978;6.296;2022-11-21T21:35:25;25.17;;;12.10;;
49440;SDS011;35317;51.978;6.296;2022-11-21T21:40:25;31.10;;;14.13;;
49440;SDS011;35317;51.978;6.296;2022-11-21T21:45:26;30.40;;;13.32;;
49440;SDS011;35317;51.978;6.296;2022-11-21T21:50:27;28.27;;;15.15;;
49440;SDS011;35317;51.978;6.296;2022-11-21T21:55:28;33.80;;;13.40;;
49440;SDS011;35317;51.978;6.296;2022-11-21T22:00:29;33.53;;;14.45;;
49440;SDS011;35317;51.978;6.296;2022-11-21T22:05:30;34.17;;;14.23;;
49440;SDS011;35317;51.978;6.296;2022-11-21T22:10:30;28.17;;;11.93;;
49440;SDS011;35317;51.978;6.296;2022-11-21T22:15:31;25.20;;;11.13;;
49440;SDS011;35317;51.978;6.296;2022-11-21T22:20:32;28.38;;;11.52;;
49440;SDS011;35317;51.978;6.296;2022-11-21T22:25:32;25.73;;;12.93;;
49440;SDS011;35317;51.978;6.296;2022-11-21T22:30:33;23.58;;;11.50;;
49440;SDS011;35317;51.978;6.296;2022-11-21T22:35:34;26.67;;;11.20;;
49440;SDS011;35317;51.978;6.296;2022-11-21T22:40:35;23.20;;;10.60;;
49440;SDS011;35317;51.978;6.296;2022-11-21T22:45:35;26.80;;;11.50;;
49440;SDS011;35317;51.978;6.296;2022-11-21T22:50:36;26.98;;;11.73;;
49440;SDS011;35317;51.978;6.296;2022-11-21T22:55:42;29.73;;;11.38;;
49440;SDS011;35317;51.978;6.296;2022-11-21T23:00:43;23.00;;;9.48;;
49440;SDS011;35317;51.978;6.296;2022-11-21T23:05:43;22.15;;;10.15;;
49440;SDS011;35317;51.978;6.296;2022-11-21T23:10:44;27.48;;;10.30;;
49440;SDS011;35317;51.978;6.296;2022-11-21T23:15:45;22.25;;;10.05;;
49440;SDS011;35317;51.978;6.296;2022-11-21T23:20:46;23.58;;;9.20;;
49440;SDS011;35317;51.978;6.296;2022-11-21T23:25:47;31.35;;;10.98;;
49440;SDS011;35317;51.978;6.296;2022-11-21T23:30:48;28.60;;;10.93;;
49440;SDS011;35317;51.978;6.296;2022-11-21T23:35:49;33.08;;;12.90;;
49440;SDS011;35317;51.978;6.296;2022-11-21T23:40:50;27.25;;;11.73;;
49440;SDS011;35317;51.978;6.296;2022-11-21T23:45:51;30.00;;;10.95;;
49440;SDS011;35317;51.978;6.296;2022-11-21T23:50:53;29.33;;;11.15;;
49440;SDS011;35317;51.978;6.296;2022-11-21T23:55:53;25.92;;;10.57;;
